This is the latest recevied weather packets stored in our database for station/object WB9TLH-11. If no packets are shown the sender has not sent any weather packets the latest 1 day(s).
| Time | Temp. | Humidity | Pressure | Rain* | Wind** | Luminosity | Snow |
|---|---|---|---|---|---|---|---|
| 1836274737 | 25° C | 54% | 1016.7 hPa | 0 mm | 0 m/s | - | - |
| 1836274587 | 24.44° C | 56% | 1016.8 hPa | 0 mm | 0 m/s | - | - |
| 1836274437 | 25° C | 53% | 1016.7 hPa | 0 mm | 0 m/s | - | - |
| 1836274287 | 24.44° C | 55% | 1016.8 hPa | 0 mm | 0 m/s | - | - |
| 1836274137 | 25° C | 53% | 1016.7 hPa | 0 mm | 0 m/s | - | - |
| 1778054450 | 7.22° C | 91% | 1010.3 hPa | 0.25 mm | 0 m/s | - | - |
| 1778054314 | 7.22° C | 90% | 1010 hPa | 0.25 mm | 0 m/s | - | - |
| 1778054153 | - | - | - | - | 0 m/s | - | - |
| 1778054150 | 7.22° C | 90% | 1010 hPa | 0.25 mm | 0 m/s | - | - |
| 1778053850 | 7.22° C | 90% | 1009.7 hPa | 0.51 mm | 0 m/s | - | - |
| 1778053550 | 7.78° C | 90% | 1009.6 hPa | 0.51 mm | 0 m/s | - | - |
| 1778053250 | 7.78° C | 90% | 1009.9 hPa | 0.51 mm | 0 m/s | - | - |
| 1778052950 | 7.78° C | 90% | 1009.6 hPa | 0.51 mm | 0 m/s | - | - |
| 1778052650 | 7.78° C | 90% | 1009.7 hPa | 0.51 mm | 0 m/s | - | - |
| 1778052350 | 7.78° C | 90% | 1009.5 hPa | 0.51 mm | 0 m/s | - | - |
| 1778052050 | 7.78° C | 91% | 1010 hPa | 0.51 mm | 0 m/s | - | - |
| 1778051750 | 7.78° C | 91% | 1010.3 hPa | 0.51 mm | 0 m/s | - | - |
| 1778051450 | 7.78° C | 91% | 1010.1 hPa | 0.76 mm | 0 m/s | - | - |
| 1778051150 | 7.78° C | 91% | 1009.9 hPa | 0.76 mm | 0 m/s | - | - |
| 1778050850 | 7.78° C | 91% | 1009.9 hPa | 0.76 mm | 0 m/s | - | - |
| 1778050550 | 7.78° C | 91% | 1009.8 hPa | 1.02 mm | 0 m/s | - | - |
| 1778050250 | 7.78° C | 91% | 1009.4 hPa | 1.02 mm | 0 m/s | - | - |
| 1778049950 | 7.78° C | 91% | 1009.5 hPa | 1.02 mm | 0 m/s | - | - |
| 1778049650 | 7.78° C | 91% | 1009.6 hPa | 1.02 mm | 0 m/s | - | - |
| 1778049350 | 7.78° C | 90% | 1009.6 hPa | 1.27 mm | 0 m/s | - | - |
* Rain latest hour (hover to see other rain measurements)
** Current wind speed in m/s (hover to see current wind gust speed)